sensor_id;sensor_type;location;lat;lon;timestamp;pressure;altitude;pressure_sealevel;temperature;humidity
40460;BME280;26164;51.138;16.952;2024-01-06T00:02:27;74506.81;;;-146.39;31.63
40460;BME280;26164;51.138;16.952;2024-01-06T00:04:54;74612.91;;;-146.39;31.88
40460;BME280;26164;51.138;16.952;2024-01-06T00:07:20;74584.34;;;-146.39;31.88
40460;BME280;26164;51.138;16.952;2024-01-06T00:10:01;74551.72;;;-146.39;31.58
40460;BME280;26164;51.138;16.952;2024-01-06T00:12:28;74386.44;;;-146.39;30.35
40460;BME280;26164;51.138;16.952;2024-01-06T00:14:54;74502.72;;;-146.39;31.12
40460;BME280;26164;51.138;16.952;2024-01-06T00:17:20;74461.94;;;-146.39;30.82
40460;BME280;26164;51.138;16.952;2024-01-06T00:19:46;74645.56;;;-146.39;32.26
40460;BME280;26164;51.138;16.952;2024-01-06T00:22:18;74659.84;;;-146.39;32.63
40460;BME280;26164;51.138;16.952;2024-01-06T00:24:44;74700.66;;;-146.39;32.97
40460;BME280;26164;51.138;16.952;2024-01-06T00:27:11;74568.03;;;-146.39;32.01
40460;BME280;26164;51.138;16.952;2024-01-06T00:29:40;74502.72;;;-146.39;31.36
40460;BME280;26164;51.138;16.952;2024-01-06T00:32:09;74449.69;;;-146.39;30.87
40460;BME280;26164;51.138;16.952;2024-01-06T00:34:35;74588.44;;;-146.39;31.71
40460;BME280;26164;51.138;16.952;2024-01-06T00:37:03;74633.31;;;-146.39;31.93
40460;BME280;26164;51.138;16.952;2024-01-06T00:39:29;74612.91;;;-146.39;31.90
40460;BME280;26164;51.138;16.952;2024-01-06T00:41:59;74592.50;;;-146.39;31.64
40460;BME280;26164;51.138;16.952;2024-01-06T00:44:27;74539.47;;;-146.39;31.48
40460;BME280;26164;51.138;16.952;2024-01-06T00:46:54;74774.13;;;-146.39;33.14
40460;BME280;26164;51.138;16.952;2024-01-06T00:49:21;74865.94;;;-146.39;34.02
40460;BME280;26164;51.138;16.952;2024-01-06T00:51:49;74780.25;;;-146.39;33.41
40460;BME280;26164;51.138;16.952;2024-01-06T00:54:16;74800.66;;;-146.39;33.88
40460;BME280;26164;51.138;16.952;2024-01-06T00:56:45;74841.47;;;-146.39;33.47
40460;BME280;26164;51.138;16.952;2024-01-06T00:59:14;74735.34;;;-146.39;33.24
40460;BME280;26164;51.138;16.952;2024-01-06T01:01:41;74894.53;;;-146.39;34.44
40460;BME280;26164;51.138;16.952;2024-01-06T01:04:07;74996.56;;;-146.39;35.10
40460;BME280;26164;51.138;16.952;2024-01-06T01:06:36;74845.53;;;-146.39;34.40
40460;BME280;26164;51.138;16.952;2024-01-06T01:09:03;74980.22;;;-146.39;35.00
40460;BME280;26164;51.138;16.952;2024-01-06T01:11:38;74898.59;;;-146.39;34.58
40460;BME280;26164;51.138;16.952;2024-01-06T01:14:04;74976.16;;;-146.39;35.37
40460;BME280;26164;51.138;16.952;2024-01-06T01:16:31;74919.00;;;-146.39;34.66
40460;BME280;26164;51.138;16.952;2024-01-06T01:18:58;74890.44;;;-146.39;34.43
40460;BME280;26164;51.138;16.952;2024-01-06T01:21:24;74978.19;;;-146.39;35.23
40460;BME280;26164;51.138;16.952;2024-01-06T01:23:50;74861.88;;;-146.39;34.17
40460;BME280;26164;51.138;16.952;2024-01-06T01:26:20;74898.59;;;-146.39;34.45
40460;BME280;26164;51.138;16.952;2024-01-06T01:28:46;74870.03;;;-146.39;34.12
40460;BME280;26164;51.138;16.952;2024-01-06T01:31:12;74935.34;;;-146.39;34.77
40460;BME280;26164;51.138;16.952;2024-01-06T01:33:39;74996.56;;;-146.39;35.47
40460;BME280;26164;51.138;16.952;2024-01-06T01:36:05;75102.66;;;-146.39;36.36
40460;BME280;26164;51.138;16.952;2024-01-06T01:38:31;75090.44;;;-146.39;36.28
40460;BME280;26164;51.138;16.952;2024-01-06T01:40:58;75151.66;;;-146.39;37.17
40460;BME280;26164;51.138;16.952;2024-01-06T01:43:25;75070.03;;;-146.39;36.09
40460;BME280;26164;51.138;16.952;2024-01-06T01:45:55;75006.75;;;-146.39;35.61
40460;BME280;26164;51.138;16.952;2024-01-06T01:48:26;74833.31;;;-146.39;34.22
40460;BME280;26164;51.138;16.952;2024-01-06T01:50:56;75053.69;;;-146.39;35.83
40460;BME280;26164;51.138;16.952;2024-01-06T01:53:31;75037.38;;;-146.39;36.07
40460;BME280;26164;51.138;16.952;2024-01-06T01:56:05;75049.63;;;-146.39;36.56
40460;BME280;26164;51.138;16.952;2024-01-06T01:58:31;75078.19;;;-146.39;36.70
40460;BME280;26164;51.138;16.952;2024-01-06T02:00:58;75029.22;;;-146.39;35.89
40460;BME280;26164;51.138;16.952;2024-01-06T02:03:25;75102.66;;;-146.39;36.24
40460;BME280;26164;51.138;16.952;2024-01-06T02:05:52;75127.16;;;-146.39;36.68
40460;BME280;26164;51.138;16.952;2024-01-06T02:08:19;75172.06;;;-146.39;37.29
40460;BME280;26164;51.138;16.952;2024-01-06T02:10:45;75223.06;;;-146.39;38.03
40460;BME280;26164;51.138;16.952;2024-01-06T02:13:11;75216.97;;;-146.39;37.82
40460;BME280;26164;51.138;16.952;2024-01-06T02:15:38;75174.09;;;-146.39;37.99
40460;BME280;26164;51.138;16.952;2024-01-06T02:18:05;75074.09;;;-146.39;37.22
40460;BME280;26164;51.138;16.952;2024-01-06T02:20:32;75221.03;;;-146.39;38.10
40460;BME280;26164;51.138;16.952;2024-01-06T02:22:58;75137.38;;;-146.39;37.22
40460;BME280;26164;51.138;16.952;2024-01-06T02:25:26;75049.63;;;-146.39;36.03
40460;BME280;26164;51.138;16.952;2024-01-06T02:27:52;75012.88;;;-146.39;35.66
40460;BME280;26164;51.138;16.952;2024-01-06T02:30:23;74963.91;;;-146.39;35.69
40460;BME280;26164;51.138;16.952;2024-01-06T02:32:52;75006.75;;;-146.39;36.02
40460;BME280;26164;51.138;16.952;2024-01-06T02:35:34;75057.78;;;-146.39;37.04
40460;BME280;26164;51.138;16.952;2024-01-06T02:38:02;75219.00;;;-146.39;37.93
40460;BME280;26164;51.138;16.952;2024-01-06T02:40:33;75241.44;;;-146.39;38.08
40460;BME280;26164;51.138;16.952;2024-01-06T02:42:59;74886.34;;;-146.39;35.21
40460;BME280;26164;51.138;16.952;2024-01-06T02:45:40;74935.34;;;-146.39;34.50
40460;BME280;26164;51.138;16.952;2024-01-06T02:48:08;74886.34;;;-146.39;34.44
40460;BME280;26164;51.138;16.952;2024-01-06T02:50:34;74798.59;;;-146.39;34.05
40460;BME280;26164;51.138;16.952;2024-01-06T02:53:03;74747.59;;;-146.39;32.95
40460;BME280;26164;51.138;16.952;2024-01-06T02:55:29;74659.84;;;-146.39;32.27
40460;BME280;26164;51.138;16.952;2024-01-06T02:57:56;74731.28;;;-146.39;32.63
40460;BME280;26164;51.138;16.952;2024-01-06T03:00:22;74749.63;;;-146.39;32.78
40460;BME280;26164;51.138;16.952;2024-01-06T03:02:48;74657.81;;;-146.39;31.98
40460;BME280;26164;51.138;16.952;2024-01-06T03:05:14;74816.97;;;-146.39;33.09
40460;BME280;26164;51.138;16.952;2024-01-06T03:07:55;74914.94;;;-146.39;33.79
40460;BME280;26164;51.138;16.952;2024-01-06T03:10:24;74986.34;;;-146.39;34.96
40460;BME280;26164;51.138;16.952;2024-01-06T03:12:50;74963.91;;;-146.39;34.70
40460;BME280;26164;51.138;16.952;2024-01-06T03:15:18;75004.72;;;-146.39;35.43
40460;BME280;26164;51.138;16.952;2024-01-06T03:17:45;74947.56;;;-146.39;35.51
40460;BME280;26164;51.138;16.952;2024-01-06T03:20:16;74972.06;;;-146.39;35.31
40460;BME280;26164;51.138;16.952;2024-01-06T03:22:41;74717.00;;;-146.39;32.76
40460;BME280;26164;51.138;16.952;2024-01-06T03:25:10;74514.97;;;-146.39;31.48
40460;BME280;26164;51.138;16.952;2024-01-06T03:27:36;74843.50;;;-146.39;33.32
40460;BME280;26164;51.138;16.952;2024-01-06T03:30:04;74821.06;;;-146.39;33.45
40460;BME280;26164;51.138;16.952;2024-01-06T03:32:32;74702.69;;;-146.39;32.61
40460;BME280;26164;51.138;16.952;2024-01-06T03:34:59;74698.63;;;-146.39;31.93
40460;BME280;26164;51.138;16.952;2024-01-06T03:37:26;74592.50;;;-146.39;30.95
40460;BME280;26164;51.138;16.952;2024-01-06T03:40:06;74731.28;;;-146.39;32.08
40460;BME280;26164;51.138;16.952;2024-01-06T03:42:35;74851.66;;;-146.39;32.94
40460;BME280;26164;51.138;16.952;2024-01-06T03:45:04;74812.91;;;-146.39;33.18
40460;BME280;26164;51.138;16.952;2024-01-06T03:47:30;74686.38;;;-146.39;31.88
40460;BME280;26164;51.138;16.952;2024-01-06T03:50:11;74576.19;;;-146.39;30.99
40460;BME280;26164;51.138;16.952;2024-01-06T03:52:39;74665.97;;;-146.39;31.25
40460;BME280;26164;51.138;16.952;2024-01-06T03:55:05;74527.22;;;-146.39;30.81
40460;BME280;26164;51.138;16.952;2024-01-06T03:57:33;74670.06;;;-146.39;31.32
40460;BME280;26164;51.138;16.952;2024-01-06T03:59:59;74631.28;;;-146.39;31.20
40460;BME280;26164;51.138;16.952;2024-01-06T04:02:26;74992.47;;;-146.39;33.70
40460;BME280;26164;51.138;16.952;2024-01-06T04:04:52;75170.00;;;-146.39;36.04
40460;BME280;26164;51.138;16.952;2024-01-06T04:07:25;74955.75;;;-146.39;34.50
40460;BME280;26164;51.138;16.952;2024-01-06T04:10:04;74904.72;;;-146.39;33.93
40460;BME280;26164;51.138;16.952;2024-01-06T04:12:49;74827.19;;;-146.39;33.38
40460;BME280;26164;51.138;16.952;2024-01-06T04:15:16;74882.28;;;-146.39;33.29
40460;BME280;26164;51.138;16.952;2024-01-06T04:17:42;74955.75;;;-146.39;33.91
40460;BME280;26164;51.138;16.952;2024-01-06T04:20:09;74804.72;;;-146.39;33.37
40460;BME280;26164;51.138;16.952;2024-01-06T04:22:39;74984.31;;;-146.39;34.66
40460;BME280;26164;51.138;16.952;2024-01-06T04:25:06;74976.16;;;-146.39;34.41
40460;BME280;26164;51.138;16.952;2024-01-06T04:27:32;74963.91;;;-146.39;34.44
40460;BME280;26164;51.138;16.952;2024-01-06T04:30:01;75155.72;;;-146.39;35.83
40460;BME280;26164;51.138;16.952;2024-01-06T04:32:27;75004.72;;;-146.39;34.74
40460;BME280;26164;51.138;16.952;2024-01-06T04:35:08;75174.09;;;-146.39;35.86
40460;BME280;26164;51.138;16.952;2024-01-06T04:37:49;75053.69;;;-146.39;35.37
40460;BME280;26164;51.138;16.952;2024-01-06T04:40:17;75086.34;;;-146.39;35.40
40460;BME280;26164;51.138;16.952;2024-01-06T04:42:43;75176.13;;;-146.39;35.96
40460;BME280;26164;51.138;16.952;2024-01-06T04:45:24;75127.16;;;-146.39;35.69
40460;BME280;26164;51.138;16.952;2024-01-06T04:47:52;75135.31;;;-146.39;35.90
40460;BME280;26164;51.138;16.952;2024-01-06T04:50:19;75245.53;;;-146.39;36.83
40460;BME280;26164;51.138;16.952;2024-01-06T04:52:48;75304.72;;;-146.39;37.34
40460;BME280;26164;51.138;16.952;2024-01-06T04:55:14;75221.03;;;-146.39;37.06
40460;BME280;26164;51.138;16.952;2024-01-06T04:57:55;75204.72;;;-146.39;36.48
40460;BME280;26164;51.138;16.952;2024-01-06T05:00:23;75055.72;;;-146.39;35.22
40460;BME280;26164;51.138;16.952;2024-01-06T05:02:48;74945.53;;;-146.39;34.11
40460;BME280;26164;51.138;16.952;2024-01-06T05:05:14;75053.69;;;-146.39;35.07
40460;BME280;26164;51.138;16.952;2024-01-06T05:07:40;74821.06;;;-146.39;32.95
40460;BME280;26164;51.138;16.952;2024-01-06T05:10:06;74841.47;;;-146.39;33.09
40460;BME280;26164;51.138;16.952;2024-01-06T05:12:32;74841.47;;;-146.39;33.06
40460;BME280;26164;51.138;16.952;2024-01-06T05:14:58;75000.63;;;-146.39;34.28
40460;BME280;26164;51.138;16.952;2024-01-06T05:17:24;75127.16;;;-146.39;34.81
40460;BME280;26164;51.138;16.952;2024-01-06T05:19:51;75102.66;;;-146.39;35.04
40460;BME280;26164;51.138;16.952;2024-01-06T05:22:16;75180.22;;;-146.39;36.07
40460;BME280;26164;51.138;16.952;2024-01-06T05:24:42;75090.44;;;-146.39;35.31
40460;BME280;26164;51.138;16.952;2024-01-06T05:27:08;75216.97;;;-146.39;36.39
40460;BME280;26164;51.138;16.952;2024-01-06T05:29:34;75190.44;;;-146.39;36.46
40460;BME280;26164;51.138;16.952;2024-01-06T05:32:00;75131.25;;;-146.39;35.43
40460;BME280;26164;51.138;16.952;2024-01-06T05:34:26;75155.72;;;-146.39;35.53
40460;BME280;26164;51.138;16.952;2024-01-06T05:36:52;74959.81;;;-146.39;33.58
40460;BME280;26164;51.138;16.952;2024-01-06T05:39:19;75045.53;;;-146.39;34.49
40460;BME280;26164;51.138;16.952;2024-01-06T05:41:45;74937.38;;;-146.39;33.51
40460;BME280;26164;51.138;16.952;2024-01-06T05:44:11;75102.66;;;-146.39;35.22
40460;BME280;26164;51.138;16.952;2024-01-06T05:46:36;75104.72;;;-146.39;35.10
40460;BME280;26164;51.138;16.952;2024-01-06T05:49:02;75174.09;;;-146.39;35.23
40460;BME280;26164;51.138;16.952;2024-01-06T05:51:28;75131.25;;;-146.39;35.10
40460;BME280;26164;51.138;16.952;2024-01-06T05:53:54;75057.78;;;-146.39;34.47
40460;BME280;26164;51.138;16.952;2024-01-06T05:56:26;74923.09;;;-146.39;33.64
40460;BME280;26164;51.138;16.952;2024-01-06T05:58:53;75147.56;;;-146.39;35.10
40460;BME280;26164;51.138;16.952;2024-01-06T06:01:19;75041.44;;;-146.39;34.64
40460;BME280;26164;51.138;16.952;2024-01-06T06:03:46;75212.88;;;-146.39;35.62
40460;BME280;26164;51.138;16.952;2024-01-06T06:06:12;75131.25;;;-146.39;35.10
40460;BME280;26164;51.138;16.952;2024-01-06T06:08:40;75098.59;;;-146.39;34.96
40460;BME280;26164;51.138;16.952;2024-01-06T06:11:07;75082.25;;;-146.39;34.52
40460;BME280;26164;51.138;16.952;2024-01-06T06:13:40;75188.38;;;-146.39;35.35
40460;BME280;26164;51.138;16.952;2024-01-06T06:16:08;75302.66;;;-146.39;37.20
40460;BME280;26164;51.138;16.952;2024-01-06T06:18:34;75282.25;;;-146.39;36.45
40460;BME280;26164;51.138;16.952;2024-01-06T06:21:01;75241.44;;;-146.39;36.53
40460;BME280;26164;51.138;16.952;2024-01-06T06:23:32;75245.53;;;-146.39;36.68
40460;BME280;26164;51.138;16.952;2024-01-06T06:25:58;75229.19;;;-146.39;36.00
40460;BME280;26164;51.138;16.952;2024-01-06T06:28:25;75365.94;;;-146.39;37.29
40460;BME280;26164;51.138;16.952;2024-01-06T06:30:51;75241.44;;;-146.39;35.98
40460;BME280;26164;51.138;16.952;2024-01-06T06:33:17;75306.75;;;-146.39;36.13
40460;BME280;26164;51.138;16.952;2024-01-06T06:35:43;75374.09;;;-146.39;36.42
40460;BME280;26164;51.138;16.952;2024-01-06T06:38:09;75416.97;;;-146.39;37.52
40460;BME280;26164;51.138;16.952;2024-01-06T06:40:34;75253.69;;;-146.39;36.18
40460;BME280;26164;51.138;16.952;2024-01-06T06:43:01;75298.59;;;-146.39;35.90
40460;BME280;26164;51.138;16.952;2024-01-06T06:45:26;75339.41;;;-146.39;36.58
40460;BME280;26164;51.138;16.952;2024-01-06T06:47:52;75435.31;;;-146.39;37.58
40460;BME280;26164;51.138;16.952;2024-01-06T06:50:18;75380.22;;;-146.39;36.92
40460;BME280;26164;51.138;16.952;2024-01-06T06:52:46;75143.50;;;-146.39;35.20
40460;BME280;26164;51.138;16.952;2024-01-06T06:55:12;75290.44;;;-146.39;36.17
40460;BME280;26164;51.138;16.952;2024-01-06T06:57:38;75253.69;;;-146.39;35.92
40460;BME280;26164;51.138;16.952;2024-01-06T07:00:05;75441.44;;;-146.39;37.38
40460;BME280;26164;51.138;16.952;2024-01-06T07:02:33;75302.66;;;-146.39;36.83
40460;BME280;26164;51.138;16.952;2024-01-06T07:04:59;75088.38;;;-146.39;34.67
40460;BME280;26164;51.138;16.952;2024-01-06T07:07:25;74841.47;;;-146.39;32.26
40460;BME280;26164;51.138;16.952;2024-01-06T07:09:52;75029.22;;;-146.39;33.43
40460;BME280;26164;51.138;16.952;2024-01-06T07:12:23;75186.34;;;-146.39;34.53
40460;BME280;26164;51.138;16.952;2024-01-06T07:14:50;75274.09;;;-146.39;35.41
40460;BME280;26164;51.138;16.952;2024-01-06T07:17:17;75010.84;;;-146.39;32.93
40460;BME280;26164;51.138;16.952;2024-01-06T07:19:43;74927.16;;;-146.39;32.19
40460;BME280;26164;51.138;16.952;2024-01-06T07:22:10;75086.34;;;-146.39;33.77
40460;BME280;26164;51.138;16.952;2024-01-06T07:24:36;75025.13;;;-146.39;33.07
40460;BME280;26164;51.138;16.952;2024-01-06T07:27:04;75355.72;;;-146.39;35.87
40460;BME280;26164;51.138;16.952;2024-01-06T07:29:30;75259.81;;;-146.39;35.19
40460;BME280;26164;51.138;16.952;2024-01-06T07:31:56;75084.31;;;-146.39;33.86
40460;BME280;26164;51.138;16.952;2024-01-06T07:34:25;75188.38;;;-146.39;34.55
40460;BME280;26164;51.138;16.952;2024-01-06T07:36:52;75086.34;;;-146.39;33.85
40460;BME280;26164;51.138;16.952;2024-01-06T07:39:18;75214.91;;;-146.39;34.41
40460;BME280;26164;51.138;16.952;2024-01-06T07:41:46;75343.50;;;-146.39;36.10
40460;BME280;26164;51.138;16.952;2024-01-06T07:44:12;75270.03;;;-146.39;35.13
40460;BME280;26164;51.138;16.952;2024-01-06T07:46:42;75335.31;;;-146.39;36.39
40460;BME280;26164;51.138;16.952;2024-01-06T07:49:08;75327.16;;;-146.39;35.33
40460;BME280;26164;51.138;16.952;2024-01-06T07:51:34;75270.03;;;-146.39;35.10
40460;BME280;26164;51.138;16.952;2024-01-06T07:54:01;75216.97;;;-146.39;35.29
40460;BME280;26164;51.138;16.952;2024-01-06T07:56:27;75192.47;;;-146.39;34.44
40460;BME280;26164;51.138;16.952;2024-01-06T07:58:53;75080.22;;;-146.39;33.44
40460;BME280;26164;51.138;16.952;2024-01-06T08:01:20;75210.84;;;-146.39;34.99
40460;BME280;26164;51.138;16.952;2024-01-06T08:03:46;75170.00;;;-146.39;34.29
40460;BME280;26164;51.138;16.952;2024-01-06T08:06:13;75053.69;;;-146.39;33.45
40460;BME280;26164;51.138;16.952;2024-01-06T08:08:39;75135.31;;;-146.39;33.88
40460;BME280;26164;51.138;16.952;2024-01-06T08:11:05;75212.88;;;-146.39;34.56
40460;BME280;26164;51.138;16.952;2024-01-06T08:13:31;75400.63;;;-146.39;35.89
40460;BME280;26164;51.138;16.952;2024-01-06T08:15:59;75151.66;;;-146.39;33.85
40460;BME280;26164;51.138;16.952;2024-01-06T08:18:24;75257.78;;;-146.39;34.45
40460;BME280;26164;51.138;16.952;2024-01-06T08:20:50;75282.25;;;-146.39;35.31
40460;BME280;26164;51.138;16.952;2024-01-06T08:23:16;75255.72;;;-146.39;34.34
40460;BME280;26164;51.138;16.952;2024-01-06T08:25:46;75270.03;;;-146.39;35.32
40460;BME280;26164;51.138;16.952;2024-01-06T08:28:13;75400.63;;;-146.39;35.83
40460;BME280;26164;51.138;16.952;2024-01-06T08:30:46;75288.38;;;-146.39;35.34
40460;BME280;26164;51.138;16.952;2024-01-06T08:33:28;75355.72;;;-146.39;35.56
40460;BME280;26164;51.138;16.952;2024-01-06T08:36:09;75457.78;;;-146.39;36.35
40460;BME280;26164;51.138;16.952;2024-01-06T08:38:45;75270.03;;;-146.39;35.22
40460;BME280;26164;51.138;16.952;2024-01-06T08:47:26;75288.38;;;-146.39;35.28
40460;BME280;26164;51.138;16.952;2024-01-06T08:50:09;75380.22;;;-146.39;35.80
40460;BME280;26164;51.138;16.952;2024-01-06T08:53:03;75341.44;;;-146.39;35.84
40460;BME280;26164;51.138;16.952;2024-01-06T09:02:51;75445.53;;;-146.39;36.84
40460;BME280;26164;51.138;16.952;2024-01-06T09:05:58;75523.09;;;-146.39;37.57
40460;BME280;26164;51.138;16.952;2024-01-06T09:24:28;75484.31;;;-146.39;37.07
40460;BME280;26164;51.138;16.952;2024-01-06T09:30:07;75543.50;;;-146.39;37.74
40460;BME280;26164;51.138;16.952;2024-01-06T09:32:54;75586.34;;;-146.39;38.37
40460;BME280;26164;51.138;16.952;2024-01-06T09:35:50;75535.34;;;-146.39;38.19
40460;BME280;26164;51.138;16.952;2024-01-06T09:38:51;75651.66;;;-146.39;39.72
40460;BME280;26164;51.138;16.952;2024-01-06T09:41:20;75445.53;;;-146.39;37.52
40460;BME280;26164;51.138;16.952;2024-01-06T09:44:18;75596.56;;;-146.39;38.13
40460;BME280;26164;51.138;16.952;2024-01-06T09:47:27;75519.00;;;-146.39;37.70
40460;BME280;26164;51.138;16.952;2024-01-06T09:53:06;75665.97;;;-146.39;39.38
40460;BME280;26164;51.138;16.952;2024-01-06T09:59:44;75608.81;;;-146.39;38.53
40460;BME280;26164;51.138;16.952;2024-01-06T10:05:43;75625.13;;;-146.39;38.84
40460;BME280;26164;51.138;16.952;2024-01-06T10:08:32;75684.31;;;-146.39;39.56
40460;BME280;26164;51.138;16.952;2024-01-06T10:59:40;75649.63;;;-146.39;39.04
40460;BME280;26164;51.138;16.952;2024-01-06T11:02:28;75551.66;;;-146.39;38.35
40460;BME280;26164;51.138;16.952;2024-01-06T11:05:06;75563.91;;;-146.39;38.22
40460;BME280;26164;51.138;16.952;2024-01-06T11:08:04;75482.28;;;-146.39;37.76
40460;BME280;26164;51.138;16.952;2024-01-06T11:10:57;75576.16;;;-146.39;38.91
40460;BME280;26164;51.138;16.952;2024-01-06T12:08:43;75482.28;;;-146.39;36.70
40460;BME280;26164;51.138;16.952;2024-01-06T12:14:42;75419.00;;;-146.39;35.75
40460;BME280;26164;51.138;16.952;2024-01-06T12:17:45;75433.28;;;-146.39;35.84
40460;BME280;26164;51.138;16.952;2024-01-06T12:20:36;75519.00;;;-146.39;36.66
40460;BME280;26164;51.138;16.952;2024-01-06T12:23:10;75539.41;;;-146.39;35.82
40460;BME280;26164;51.138;16.952;2024-01-06T12:25:42;75396.56;;;-146.39;36.04
40460;BME280;26164;51.138;16.952;2024-01-06T12:28:44;75431.25;;;-146.39;35.64
40460;BME280;26164;51.138;16.952;2024-01-06T12:31:41;75596.56;;;-146.39;37.41
40460;BME280;26164;51.138;16.952;2024-01-06T12:34:25;75616.97;;;-146.39;37.01
40460;BME280;26164;51.138;16.952;2024-01-06T12:37:23;75449.63;;;-146.39;36.82
40460;BME280;26164;51.138;16.952;2024-01-06T12:39:56;75400.63;;;-146.39;35.77
40460;BME280;26164;51.138;16.952;2024-01-06T12:43:49;75457.78;;;-146.39;36.01
40460;BME280;26164;51.138;16.952;2024-01-06T12:46:23;75592.47;;;-146.39;38.29
40460;BME280;26164;51.138;16.952;2024-01-06T12:48:53;75514.94;;;-146.39;37.45
40460;BME280;26164;51.138;16.952;2024-01-06T12:51:20;75727.19;;;-146.39;38.56
40460;BME280;26164;51.138;16.952;2024-01-06T12:53:46;75504.72;;;-146.39;37.72
40460;BME280;26164;51.138;16.952;2024-01-06T12:56:59;75539.41;;;-146.39;37.29
40460;BME280;26164;51.138;16.952;2024-01-06T12:59:55;75621.06;;;-146.39;37.57
40460;BME280;26164;51.138;16.952;2024-01-06T13:02:21;75510.84;;;-146.39;37.06
40460;BME280;26164;51.138;16.952;2024-01-06T13:05:00;75629.22;;;-146.39;37.69
40460;BME280;26164;51.138;16.952;2024-01-06T13:07:29;75723.09;;;-146.39;38.36
40460;BME280;26164;51.138;16.952;2024-01-06T13:09:56;75555.75;;;-146.39;37.44
40460;BME280;26164;51.138;16.952;2024-01-06T13:50:31;75682.28;;;-146.39;36.45
40460;BME280;26164;51.138;16.952;2024-01-06T13:52:58;75568.00;;;-146.39;35.95
40460;BME280;26164;51.138;16.952;2024-01-06T13:55:25;75619.00;;;-146.39;36.42
40460;BME280;26164;51.138;16.952;2024-01-06T13:57:52;75525.13;;;-146.39;36.22
40460;BME280;26164;51.138;16.952;2024-01-06T14:00:20;75472.06;;;-146.39;35.63
40460;BME280;26164;51.138;16.952;2024-01-06T14:02:55;75488.41;;;-146.39;35.84
40460;BME280;26164;51.138;16.952;2024-01-06T14:05:24;75565.94;;;-146.39;36.56
40460;BME280;26164;51.138;16.952;2024-01-06T14:07:54;75588.41;;;-146.39;37.06
40460;BME280;26164;51.138;16.952;2024-01-06T14:10:38;75845.56;;;-146.39;38.59
40460;BME280;26164;51.138;16.952;2024-01-06T14:13:19;75692.50;;;-146.39;37.41
40460;BME280;26164;51.138;16.952;2024-01-06T14:16:26;75780.25;;;-146.39;38.00
40460;BME280;26164;51.138;16.952;2024-01-06T14:18:52;75829.25;;;-146.39;37.64
40460;BME280;26164;51.138;16.952;2024-01-06T14:21:30;75870.06;;;-146.39;39.37
40460;BME280;26164;51.138;16.952;2024-01-06T14:24:12;76041.53;;;-146.39;40.90
40460;BME280;26164;51.138;16.952;2024-01-06T14:26:40;75841.50;;;-146.39;39.70
40460;BME280;26164;51.138;16.952;2024-01-06T14:32:55;75823.13;;;-146.39;38.49
40460;BME280;26164;51.138;16.952;2024-01-06T14:35:40;75865.97;;;-146.39;38.84
40460;BME280;26164;51.138;16.952;2024-01-06T14:38:15;75829.25;;;-146.39;37.97
40460;BME280;26164;51.138;16.952;2024-01-06T14:40:51;75698.63;;;-146.39;38.06
40460;BME280;26164;51.138;16.952;2024-01-06T14:43:25;75723.09;;;-146.39;37.29
40460;BME280;26164;51.138;16.952;2024-01-06T14:46:13;75874.16;;;-146.39;39.02
40460;BME280;26164;51.138;16.952;2024-01-06T14:48:58;75951.72;;;-146.39;39.05
40460;BME280;26164;51.138;16.952;2024-01-06T14:51:28;75845.56;;;-146.39;38.13
40460;BME280;26164;51.138;16.952;2024-01-06T14:54:16;75861.91;;;-146.39;38.63
40460;BME280;26164;51.138;16.952;2024-01-06T14:56:47;75882.31;;;-146.39;38.69
40460;BME280;26164;51.138;16.952;2024-01-06T15:00:06;75861.91;;;-146.39;38.98
40460;BME280;26164;51.138;16.952;2024-01-06T15:03:04;75908.84;;;-146.39;38.46
40460;BME280;26164;51.138;16.952;2024-01-06T15:05:30;75963.97;;;-146.39;39.15
40460;BME280;26164;51.138;16.952;2024-01-06T15:08:06;75865.97;;;-146.39;37.77
40460;BME280;26164;51.138;16.952;2024-01-06T15:10:45;75845.56;;;-146.39;37.31
40460;BME280;26164;51.138;16.952;2024-01-06T15:13:38;75574.13;;;-146.39;35.99
40460;BME280;26164;51.138;16.952;2024-01-06T15:16:30;75796.59;;;-146.39;36.99
40460;BME280;26164;51.138;16.952;2024-01-06T15:22:58;75939.47;;;-146.39;39.18
40460;BME280;26164;51.138;16.952;2024-01-06T15:25:30;75890.47;;;-146.39;37.99
40460;BME280;26164;51.138;16.952;2024-01-06T15:27:59;75900.69;;;-146.39;38.33
40460;BME280;26164;51.138;16.952;2024-01-06T15:30:40;75702.69;;;-146.39;37.08
40460;BME280;26164;51.138;16.952;2024-01-06T15:33:46;75931.31;;;-146.39;39.00
40460;BME280;26164;51.138;16.952;2024-01-06T15:40:03;75841.50;;;-146.39;37.52
40460;BME280;26164;51.138;16.952;2024-01-06T15:42:43;75792.50;;;-146.39;37.42
40460;BME280;26164;51.138;16.952;2024-01-06T15:45:13;75853.75;;;-146.39;38.13
40460;BME280;26164;51.138;16.952;2024-01-06T15:48:00;75721.06;;;-146.39;36.79
40460;BME280;26164;51.138;16.952;2024-01-06T15:50:39;75710.88;;;-146.39;36.11
40460;BME280;26164;51.138;16.952;2024-01-06T15:53:18;75768.00;;;-146.39;37.18
40460;BME280;26164;51.138;16.952;2024-01-06T15:56:03;75800.66;;;-146.39;37.09
40460;BME280;26164;51.138;16.952;2024-01-06T15:58:52;76004.78;;;-146.39;38.54
40460;BME280;26164;51.138;16.952;2024-01-06T16:02:20;75882.31;;;-146.39;37.88
40460;BME280;26164;51.138;16.952;2024-01-06T16:05:14;75861.91;;;-146.39;38.37
40460;BME280;26164;51.138;16.952;2024-01-06T16:07:53;76076.22;;;-146.39;39.09
40460;BME280;26164;51.138;16.952;2024-01-06T16:10:22;75951.72;;;-146.39;39.04
40460;BME280;26164;51.138;16.952;2024-01-06T16:13:21;75921.09;;;-146.39;38.49
40460;BME280;26164;51.138;16.952;2024-01-06T16:16:24;75984.38;;;-146.39;39.14
40460;BME280;26164;51.138;16.952;2024-01-06T16:22:31;75976.22;;;-146.39;38.86